Map

Track Data

SID SEASON NUMBER BASIN SUBBASIN NAME ISO_TIME NATURE LAT LON WMO_WIND WMO_PRES WMO_AGENCY TRACK_TYPE DIST2LAND LANDFALL IFLAG USA_AGENCY USA_ATCF_ID USA_LAT USA_LON USA_RECORD USA_STATUS USA_WIND USA_PRES USA_SSHS USA_R34_NE USA_R34_SE USA_R34_SW USA_R34_NW USA_R50_NE USA_R50_SE USA_R50_SW USA_R50_NW USA_R64_NE USA_R64_SE USA_R64_SW USA_R64_NW USA_POCI USA_ROCI USA_RMW USA_EYE TOKYO_LAT TOKYO_LON TOKYO_GRADE TOKYO_WIND TOKYO_PRES TOKYO_R50_DIR TOKYO_R50_LONG TOKYO_R50_SHORT TOKYO_R30_DIR TOKYO_R30_LONG TOKYO_R30_SHORT TOKYO_LAND CMA_LAT CMA_LON CMA_CAT CMA_WIND CMA_PRES HKO_LAT HKO_LON HKO_CAT HKO_WIND HKO_PRES NEWDELHI_LAT NEWDELHI_LON NEWDELHI_GRADE NEWDELHI_WIND NEWDELHI_PRES NEWDELHI_CI NEWDELHI_DP NEWDELHI_POCI REUNION_LAT REUNION_LON REUNION_TYPE REUNION_WIND REUNION_PRES REUNION_TNUM REUNION_CI REUNION_RMW REUNION_R34_NE REUNION_R34_SE REUNION_R34_SW REUNION_R34_NW REUNION_R50_NE REUNION_R50_SE REUNION_R50_SW REUNION_R50_NW REUNION_R64_NE REUNION_R64_SE REUNION_R64_SW REUNION_R64_NW BOM_LAT BOM_LON BOM_TYPE BOM_WIND BOM_PRES BOM_TNUM BOM_CI BOM_RMW BOM_R34_NE BOM_R34_SE BOM_R34_SW BOM_R34_NW BOM_R50_NE BOM_R50_SE BOM_R50_SW BOM_R50_NW BOM_R64_NE BOM_R64_SE BOM_R64_SW BOM_R64_NW BOM_ROCI BOM_POCI BOM_EYE BOM_POS_METHOD BOM_PRES_METHOD NADI_LAT NADI_LON NADI_CAT NADI_WIND NADI_PRES WELLINGTON_LAT WELLINGTON_LON WELLINGTON_WIND WELLINGTON_PRES DS824_LAT DS824_LON DS824_STAGE DS824_WIND DS824_PRES TD9636_LAT TD9636_LON TD9636_STAGE TD9636_WIND TD9636_PRES TD9635_LAT TD9635_LON TD9635_WIND TD9635_PRES TD9635_ROCI NEUMANN_LAT NEUMANN_LON NEUMANN_CLASS NEUMANN_WIND NEUMANN_PRES MLC_LAT MLC_LON MLC_CLASS MLC_WIND MLC_PRES USA_GUST BOM_GUST BOM_GUST_PER REUNION_GUST REUNION_GUST_PER USA_SEAHGT USA_SEARAD_NE USA_SEARAD_SE USA_SEARAD_SW USA_SEARAD_NW STORM_SPEED STORM_DIR
2000220N24149 2000 58 WP MM NOT_NAMED 2000-08-06 18:00:00 TS 23.7000 148.600 main 1505 1465 O_____________ jtwc_wp WP142000 23.7000 148.600 TD 15 -1 9 299
2000220N24149 2000 58 WP MM NOT_NAMED 2000-08-06 21:00:00 TS 23.9079 148.188 main 1465 1425 P_____________ WP142000 23.9079 148.188 TD 15 -1 8 299
2000220N24149 2000 58 WP MM NOT_NAMED 2000-08-07 00:00:00 TS 24.1000 147.800 main 1425 1390 O_____________ jtwc_wp WP142000 24.1000 147.800 TD 15 -1 8 298
2000220N24149 2000 58 WP MM NOT_NAMED 2000-08-07 03:00:00 TS 24.2770 147.437 main 1385 1346 P_____________ WP142000 24.2770 147.437 TD 17 -1 8 299
2000220N24149 2000 58 WP MM NOT_NAMED 2000-08-07 06:00:00 TS 24.5000 147.000 main 1346 1288 O_____________ jtwc_wp WP142000 24.5000 147.000 TD 20 -1 11 299
2000220N24149 2000 58 WP MM NOT_NAMED 2000-08-07 09:00:00 TS 24.8053 146.372 main 1288 1216 P_____________ WP142000 24.8053 146.372 TD 20 -1 14 301
2000220N24149 2000 58 WP MM NOT_NAMED 2000-08-07 12:00:00 TS 25.2000 145.700 main 1216 1150 O_____________ jtwc_wp WP142000 25.2000 145.700 TD 20 -1 14 305
2000220N24149 2000 58 WP MM NOT_NAMED 2000-08-07 15:00:00 TS 25.6100 145.097 main 1150 1069 P_____________ WP142000 25.6100 145.097 TD 20 -1 14 315
2000220N24149 2000 58 WP MM NOT_NAMED 2000-08-07 18:00:00 TS 26.2000 144.600 main 1069 965 O_____________ jtwc_wp WP142000 26.2000 144.600 TD 20 -1 17 333
2000220N24149 2000 58 WP MM NOT_NAMED 2000-08-07 21:00:00 TS 27.1347 144.248 main 961 851 P_____________ WP142000 27.1347 144.248 TD 22 -1 20 344
2000220N24149 2000 58 WP MM NOT_NAMED 2000-08-08 00:00:00 TS 28.1000 144.000 main 851 783 O_____________ jtwc_wp WP142000 28.1000 144.000 TD 25 -1 17 346
2000220N24149 2000 58 WP MM NOT_NAMED 2000-08-08 03:00:00 TS 28.7373 143.791 main 783 714 P_____________ WP142000 28.7373 143.791 TD 25 -1 13 344
2000220N24149 2000 58 WP MM NOT_NAMED 2000-08-08 06:00:00 TS 29.3000 143.600 main 714 632 O_____________ jtwc_wp WP142000 29.3000 143.600 TD 25 -1 14 342
2000220N24149 2000 58 WP MM NOT_NAMED 2000-08-08 09:00:00 TS 30.0376 143.299 main 632 555 P_____________ WP142000 30.0376 143.299 TD 25 -1 15 343
2000220N24149 2000 58 WP MM NOT_NAMED 2000-08-08 12:00:00 TS 30.7000 143.100 main 555 523 O_____________ jtwc_wp WP142000 30.7000 143.100 TD 25 -1 11 354
2000220N24149 2000 58 WP MM NOT_NAMED 2000-08-08 15:00:00 TS 31.0799 143.167 main 523 506 P_____________ WP142000 31.0799 143.167 TD 27 -1 7 20
2000220N24149 2000 58 WP MM NOT_NAMED 2000-08-08 18:00:00 TS 31.4000 143.400 main 506 477 O_____________ jtwc_wp WP142000 31.4000 143.400 TD 30 -1 9 28
2000220N24149 2000 58 WP MM NOT_NAMED 2000-08-08 21:00:00 TS 31.8851 143.677 main 477 455 P_____________ WP142000 31.8851 143.677 TD 30 -1 11 27
2000220N24149 2000 58 WP MM NOT_NAMED 2000-08-09 00:00:00 TS 32.4000 144.000 main 455 440 O_____________ jtwc_wp WP142000 32.4000 144.000 TD 30 -1 11 28
2000220N24149 2000 58 WP MM NOT_NAMED 2000-08-09 03:00:00 TS 32.8497 144.278 main 447 431 P_____________ WP142000 32.8497 144.278 TD 30 -1 10 29
2000220N24149 2000 58 WP MM NOT_NAMED 2000-08-09 06:00:00 TS 33.3000 144.600 main 431 421 O_____________ jtwc_wp WP142000 33.3000 144.600 TD 30 -1 11 32
2000220N24149 2000 58 WP MM NOT_NAMED 2000-08-09 09:00:00 TS 33.7917 144.969 main 429 423 P_____________ WP142000 33.7917 144.969 TD 30 -1 13 37
2000220N24149 2000 58 WP MM NOT_NAMED 2000-08-09 12:00:00 TS 34.3000 145.500 main 446 446 O_____________ jtwc_wp WP142000 34.3000 145.500 TD 30 -1 15 45
2000220N24149 2000 58 WP MM NOT_NAMED 2000-08-09 15:00:00 TS 34.8523 146.259 main 496 496 P_____________ WP142000 34.8523 146.259 TD 30 -1 17 54
2000220N24149 2000 58 WP MM NOT_NAMED 2000-08-09 18:00:00 TS 35.3000 147.200 main 570 570 O_____________ jtwc_wp WP142000 35.3000 147.200 TD 30 -1 17 69
2000220N24149 2000 58 WP MM NOT_NAMED 2000-08-09 21:00:00 TS 35.4877 148.237 main 658 658 P_____________ WP142000 35.4877 148.237 TD 30 -1 17 80
2000220N24149 2000 58 WP MM NOT_NAMED 2000-08-10 00:00:00 TS 35.6000 149.300 main 753 753 O_____________ jtwc_wp WP142000 35.6000 149.300 TD 30 -1 16 78
2000220N24149 2000 58 WP MM NOT_NAMED 2000-08-10 03:00:00 TS 35.8248 150.206 main 818 818 P_____________ WP142000 35.8248 150.206 TD 27 -1 16 72
2000220N24149 2000 58 WP MM NOT_NAMED 2000-08-10 06:00:00 TS 36.1000 151.200 main 882 882 O_____________ jtwc_wp WP142000 36.1000 151.200 TD 25 -1 19 72
2000220N24149 2000 58 WP MM NOT_NAMED 2000-08-10 09:00:00 TS 36.3999 152.462 main 962 962 P_____________ WP142000 36.3999 152.462 TD 25 -1 23 75
2000220N24149 2000 58 WP MM NOT_NAMED 2000-08-10 12:00:00 TS 36.7000 153.900 main 1015 O_____________ jtwc_wp WP142000 36.7000 153.900 TD 25 -1 24 75

Digital Typhoon Data and Search

About IBTrACS Database

This database is a web-friendly format of International Best Track Archive for Climate Stewardship (IBTrACS), a global best track data archive curated by NOAA dating back to 1842.

Updated: 2021-12-03